createdAt,value
2019-06-26T00:02:05.320Z,53.20
2019-06-26T00:04:33.955Z,53.30
2019-06-26T00:07:02.507Z,53.40
2019-06-26T00:09:31.136Z,53.60
2019-06-26T00:11:59.696Z,53.70
2019-06-26T00:14:28.401Z,53.70
2019-06-26T00:16:56.949Z,53.90
2019-06-26T00:19:25.645Z,53.90
2019-06-26T00:21:54.254Z,54.00
2019-06-26T00:24:22.911Z,54.20
2019-06-26T00:26:51.530Z,54.30
2019-06-26T00:29:20.045Z,54.40
2019-06-26T00:31:48.663Z,54.70
2019-06-26T00:34:17.328Z,54.90
2019-06-26T00:36:45.868Z,55.10
2019-06-26T00:39:14.455Z,55.60
2019-06-26T00:41:43.085Z,55.60
2019-06-26T00:44:11.709Z,55.80
2019-06-26T00:46:40.219Z,55.90
2019-06-26T00:49:08.773Z,56.10
2019-06-26T00:51:37.483Z,56.30
2019-06-26T00:54:06.221Z,56.90
2019-06-26T00:56:35.295Z,57.00
2019-06-26T00:59:04.028Z,57.20
2019-06-26T01:01:32.545Z,57.50
2019-06-26T01:04:02.831Z,57.60
2019-06-26T01:06:43.676Z,57.90
2019-06-26T01:09:13.684Z,58.00
2019-06-26T01:11:42.994Z,58.10
2019-06-26T01:14:11.811Z,58.20
2019-06-26T01:16:40.455Z,58.30
2019-06-26T01:19:09.079Z,58.40
2019-06-26T01:21:37.816Z,58.60
2019-06-26T01:24:06.612Z,58.60
2019-06-26T01:26:35.633Z,58.90
2019-06-26T01:29:04.630Z,59.00
2019-06-26T01:31:33.269Z,59.10
2019-06-26T01:34:01.912Z,59.30
2019-06-26T01:36:30.567Z,59.60
2019-06-26T01:38:59.117Z,59.70
2019-06-26T01:41:28.330Z,59.60
2019-06-26T01:43:56.891Z,59.80
2019-06-26T01:46:25.459Z,60.10
2019-06-26T01:48:53.951Z,60.10
2019-06-26T01:51:22.458Z,60.10
2019-06-26T01:53:51.080Z,60.20
2019-06-26T01:56:19.736Z,60.20
2019-06-26T01:58:48.290Z,60.40
2019-06-26T02:01:17.011Z,60.50
2019-06-26T02:03:45.580Z,60.70
2019-06-26T02:06:14.528Z,61.00
2019-06-26T02:08:43.140Z,61.40
2019-06-26T02:11:11.695Z,61.80
2019-06-26T02:13:40.276Z,62.20
2019-06-26T02:16:08.895Z,63.20
2019-06-26T02:18:44.952Z,62.70
2019-06-26T02:21:13.561Z,63.00
2019-06-26T02:23:42.116Z,63.30
2019-06-26T02:26:10.747Z,63.60
2019-06-26T02:28:39.332Z,64.00
2019-06-26T02:31:07.881Z,64.20
2019-06-26T02:33:36.466Z,64.50
2019-06-26T02:36:05.370Z,64.80
2019-06-26T02:38:34.076Z,65.80
2019-06-26T02:41:02.729Z,65.10
2019-06-26T02:43:31.386Z,64.50
2019-06-26T02:46:00.064Z,65.40
2019-06-26T02:48:28.712Z,65.70
2019-06-26T02:50:57.341Z,66.00
2019-06-26T02:53:25.916Z,66.10
2019-06-26T02:55:54.465Z,66.50
2019-06-26T02:58:23.123Z,66.80
2019-06-26T03:00:51.692Z,67.10
2019-06-26T03:03:20.344Z,67.40
2019-06-26T03:05:48.964Z,67.70
2019-06-26T03:08:17.611Z,68.10
2019-06-26T03:10:46.234Z,68.50
2019-06-26T03:13:14.803Z,68.80
2019-06-26T03:15:43.347Z,68.80
2019-06-26T03:18:11.893Z,68.70
2019-06-26T03:20:43.552Z,68.80
2019-06-26T03:23:12.164Z,69.20
2019-06-26T03:25:40.783Z,69.40
2019-06-26T03:28:09.323Z,69.70
2019-06-26T03:30:37.849Z,69.90
2019-06-26T03:33:06.472Z,70.00
2019-06-26T03:35:34.971Z,70.10
2019-06-26T03:38:03.607Z,70.20
2019-06-26T03:40:32.337Z,70.40
2019-06-26T03:43:00.967Z,70.60
2019-06-26T03:45:29.628Z,70.80
2019-06-26T03:47:58.345Z,71.10
2019-06-26T03:50:26.999Z,71.20
2019-06-26T03:52:55.543Z,71.40
2019-06-26T03:55:24.197Z,71.60
2019-06-26T03:57:52.760Z,71.80
2019-06-26T04:00:27.084Z,71.90
2019-06-26T04:02:55.704Z,72.00
2019-06-26T04:05:24.371Z,72.00
2019-06-26T04:07:53.135Z,72.40
2019-06-26T04:10:21.644Z,72.30
2019-06-26T04:12:50.132Z,72.50
2019-06-26T04:15:18.890Z,72.80
2019-06-26T04:17:47.585Z,72.70
2019-06-26T04:20:16.296Z,72.80
2019-06-26T04:22:47.568Z,73.00
2019-06-26T04:25:15.255Z,72.40
2019-06-26T04:27:43.899Z,72.30
2019-06-26T04:30:13.048Z,72.20
2019-06-26T04:32:41.860Z,72.10
2019-06-26T04:35:11.004Z,71.90
2019-06-26T04:37:39.572Z,71.70
2019-06-26T04:40:08.563Z,71.70
2019-06-26T04:42:37.211Z,71.70
2019-06-26T04:45:07.431Z,71.40
2019-06-26T04:47:36.744Z,72.10
2019-06-26T04:50:06.773Z,70.90
2019-06-26T04:52:35.472Z,71.60
2019-06-26T04:55:06.757Z,71.10
2019-06-26T04:57:35.583Z,71.30
2019-06-26T05:00:06.435Z,71.00
2019-06-26T05:02:35.155Z,71.00
2019-06-26T05:05:06.471Z,71.30
2019-06-26T05:07:35.250Z,71.50
2019-06-26T05:10:04.909Z,71.80
2019-06-26T05:12:33.452Z,71.80
2019-06-26T05:15:02.010Z,71.60
2019-06-26T05:17:30.752Z,71.80
2019-06-26T05:19:59.457Z,71.80
2019-06-26T05:22:28.143Z,71.90
2019-06-26T05:24:56.689Z,71.70
2019-06-26T05:27:25.344Z,71.60
2019-06-26T05:29:54.593Z,71.60
2019-06-26T05:32:23.338Z,71.70
2019-06-26T05:34:52.065Z,71.60
2019-06-26T05:37:21.040Z,71.70
2019-06-26T05:39:49.529Z,71.80
2019-06-26T05:42:18.148Z,71.80
2019-06-26T05:44:46.929Z,71.80
2019-06-26T05:47:15.564Z,71.80
2019-06-26T05:49:44.216Z,71.60
2019-06-26T05:52:16.378Z,71.60
2019-06-26T05:54:43.180Z,71.50
2019-06-26T05:57:11.790Z,71.60
2019-06-26T05:59:40.461Z,71.70
2019-06-26T06:02:09.061Z,71.60
2019-06-26T06:04:37.719Z,71.70
2019-06-26T06:07:06.414Z,71.70
2019-06-26T06:09:35.055Z,71.90
2019-06-26T06:12:03.799Z,71.40
2019-06-26T06:14:32.378Z,70.90
2019-06-26T06:17:00.922Z,70.30
2019-06-26T06:19:29.501Z,70.00
2019-06-26T06:21:58.222Z,70.00
2019-06-26T06:24:26.875Z,69.80
2019-06-26T06:26:55.578Z,69.70
2019-06-26T06:29:24.136Z,69.50
2019-06-26T06:31:52.633Z,69.40
2019-06-26T06:34:21.268Z,69.20
2019-06-26T06:36:49.896Z,68.50
2019-06-26T06:39:18.547Z,68.40
2019-06-26T06:41:47.155Z,68.70
2019-06-26T06:44:15.754Z,69.00
2019-06-26T06:46:44.368Z,69.20
2019-06-26T06:49:12.964Z,69.20
2019-06-26T06:51:41.572Z,69.80
2019-06-26T06:54:10.241Z,69.70
2019-06-26T06:56:38.732Z,69.50
2019-06-26T06:59:07.495Z,69.00
2019-06-26T07:01:36.279Z,68.80
2019-06-26T07:04:04.989Z,68.60
2019-06-26T07:06:33.732Z,68.00
2019-06-26T07:09:02.561Z,67.70
2019-06-26T07:11:31.197Z,67.20
2019-06-26T07:13:59.748Z,67.40
2019-06-26T07:16:28.340Z,67.30
2019-06-26T07:18:57.037Z,66.80
2019-06-26T07:21:25.680Z,66.40
2019-06-26T07:23:54.223Z,66.20
2019-06-26T07:26:23.025Z,65.90
2019-06-26T07:28:51.656Z,66.10
2019-06-26T07:31:20.264Z,65.50
2019-06-26T07:33:48.817Z,65.60
2019-06-26T07:36:17.524Z,65.30
2019-06-26T07:38:46.073Z,65.50
2019-06-26T07:41:14.717Z,64.90
2019-06-26T07:43:43.285Z,65.10
2019-06-26T07:46:12.026Z,64.90
2019-06-26T07:48:40.661Z,64.00
2019-06-26T07:51:09.312Z,64.50
2019-06-26T07:53:37.853Z,64.30
2019-06-26T07:56:06.386Z,64.80
2019-06-26T07:58:36.468Z,64.30
2019-06-26T08:01:05.202Z,64.00
2019-06-26T08:03:33.851Z,63.80
2019-06-26T08:06:02.562Z,63.60
2019-06-26T08:08:31.108Z,63.20
2019-06-26T08:10:59.642Z,63.00
2019-06-26T08:13:28.211Z,62.70
2019-06-26T08:15:56.775Z,61.80
2019-06-26T08:18:25.348Z,61.60
2019-06-26T08:21:10.914Z,60.90
2019-06-26T08:23:24.214Z,61.40
2019-06-26T08:25:52.779Z,61.50
2019-06-26T08:28:21.449Z,61.50
2019-06-26T08:30:50.159Z,61.10
2019-06-26T08:33:18.732Z,61.20
2019-06-26T08:35:47.224Z,61.70
2019-06-26T08:38:15.971Z,61.20
2019-06-26T08:40:44.584Z,60.70
2019-06-26T08:43:13.330Z,60.20
2019-06-26T08:45:42.039Z,60.80
2019-06-26T08:48:22.687Z,59.70
2019-06-26T08:50:40.971Z,59.60
2019-06-26T08:53:09.641Z,59.60
2019-06-26T08:55:38.256Z,59.80
2019-06-26T08:58:06.999Z,60.30
2019-06-26T09:00:35.553Z,60.50
2019-06-26T09:03:05.012Z,59.90
2019-06-26T09:05:47.509Z,59.60
2019-06-26T09:08:04.276Z,59.80
2019-06-26T09:10:33.139Z,59.40
2019-06-26T09:13:01.790Z,59.10
2019-06-26T09:15:30.487Z,59.00
2019-06-26T09:17:59.034Z,59.10
2019-06-26T09:20:41.082Z,59.20
2019-06-26T09:23:09.833Z,58.10
2019-06-26T09:25:38.586Z,58.30
2019-06-26T09:28:07.822Z,58.40
2019-06-26T09:30:36.471Z,58.10
2019-06-26T09:33:05.375Z,58.40
2019-06-26T09:35:34.095Z,58.50
2019-06-26T09:38:02.712Z,58.00
2019-06-26T09:40:32.126Z,57.80
2019-06-26T09:43:00.869Z,57.80
2019-06-26T09:45:29.548Z,57.70
2019-06-26T09:47:58.167Z,57.50
2019-06-26T09:50:27.034Z,57.20
2019-06-26T09:52:55.649Z,56.70
2019-06-26T09:55:24.473Z,56.80
2019-06-26T09:57:53.106Z,57.00
2019-06-26T10:00:23.525Z,56.00
2019-06-26T10:02:52.168Z,55.70
2019-06-26T10:05:21.046Z,55.30
2019-06-26T10:07:49.586Z,55.50
2019-06-26T10:10:18.554Z,55.60
2019-06-26T10:12:47.164Z,55.00
2019-06-26T10:15:15.912Z,55.00
2019-06-26T10:17:44.627Z,55.20
2019-06-26T10:20:14.833Z,54.60
2019-06-26T10:22:43.511Z,54.80
2019-06-26T10:25:12.935Z,54.50
2019-06-26T10:27:41.761Z,55.10
2019-06-26T10:30:10.852Z,55.00
2019-06-26T10:32:39.511Z,54.70
2019-06-26T10:35:08.512Z,54.90
2019-06-26T10:37:37.240Z,55.00
2019-06-26T10:40:06.861Z,54.80
2019-06-26T10:42:35.664Z,54.20
2019-06-26T10:45:06.809Z,54.40
2019-06-26T10:47:38.642Z,53.80
2019-06-26T10:50:07.030Z,54.00
2019-06-26T10:52:35.753Z,53.50
2019-06-26T10:55:07.337Z,53.00
2019-06-26T10:57:36.064Z,52.60
2019-06-26T11:00:08.516Z,53.10
2019-06-26T11:02:37.381Z,52.70
2019-06-26T11:05:10.551Z,53.10
2019-06-26T11:07:39.140Z,52.20
2019-06-26T11:10:09.044Z,52.70
2019-06-26T11:12:37.704Z,52.40
2019-06-26T11:15:07.439Z,52.80
2019-06-26T11:17:36.153Z,52.50
2019-06-26T11:20:08.973Z,52.40
2019-06-26T11:22:37.708Z,51.80
2019-06-26T11:25:07.733Z,51.30
2019-06-26T11:27:36.584Z,51.70
2019-06-26T11:30:08.418Z,51.30
2019-06-26T11:32:36.996Z,51.50
2019-06-26T11:35:06.997Z,51.20
2019-06-26T11:37:35.984Z,51.10
2019-06-26T11:40:06.414Z,51.60
2019-06-26T11:42:34.990Z,50.60
2019-06-26T11:45:05.400Z,50.40
2019-06-26T11:47:34.099Z,50.00
2019-06-26T11:50:03.624Z,49.80
2019-06-26T11:52:32.297Z,49.30
2019-06-26T11:55:03.169Z,49.60
2019-06-26T11:57:31.319Z,49.90
2019-06-26T12:00:00.023Z,50.10
2019-06-26T12:02:28.665Z,49.70
2019-06-26T12:04:57.214Z,49.80
2019-06-26T12:07:25.762Z,49.10
2019-06-26T12:09:54.398Z,49.40
2019-06-26T12:12:23.129Z,49.70
2019-06-26T12:14:51.685Z,49.50
2019-06-26T12:17:20.300Z,48.10
2019-06-26T12:19:48.865Z,48.20
2019-06-26T12:22:17.339Z,47.30
2019-06-26T12:24:45.931Z,44.50
2019-06-26T12:27:14.520Z,42.00
2019-06-26T12:29:43.124Z,39.70
2019-06-26T12:32:11.737Z,37.00
2019-06-26T12:34:40.495Z,35.50
2019-06-26T12:37:09.062Z,33.70
2019-06-26T12:39:37.667Z,33.10
2019-06-26T12:42:06.379Z,31.30
2019-06-26T12:44:35.024Z,30.30
2019-06-26T12:47:03.681Z,29.60
2019-06-26T12:49:32.353Z,28.80
2019-06-26T12:52:01.049Z,27.60
2019-06-26T12:54:29.771Z,26.60
2019-06-26T12:56:58.450Z,26.00
2019-06-26T12:59:27.119Z,24.80
2019-06-26T13:01:55.727Z,24.90
2019-06-26T13:04:24.283Z,24.40
2019-06-26T13:06:52.947Z,23.90
2019-06-26T13:09:21.591Z,23.50
2019-06-26T13:11:50.349Z,23.30
2019-06-26T13:14:18.974Z,22.20
2019-06-26T13:16:47.584Z,21.60
2019-06-26T13:19:17.135Z,21.50
2019-06-26T13:21:45.846Z,20.90
2019-06-26T13:24:14.404Z,21.40
2019-06-26T13:26:43.001Z,21.40
2019-06-26T13:29:11.681Z,20.70
2019-06-26T13:31:40.341Z,20.00
2019-06-26T13:34:08.959Z,20.30
2019-06-26T13:36:37.661Z,20.70
2019-06-26T13:39:07.356Z,20.20
2019-06-26T13:41:36.066Z,20.10
2019-06-26T13:44:04.759Z,19.50
2019-06-26T13:46:33.490Z,18.90
2019-06-26T13:49:02.064Z,18.70
2019-06-26T13:51:30.786Z,18.40
2019-06-26T13:53:59.433Z,18.30
2019-06-26T13:56:28.015Z,18.10
2019-06-26T13:58:56.649Z,18.10
2019-06-26T14:01:25.439Z,18.80
2019-06-26T14:03:54.056Z,18.60
2019-06-26T14:06:22.702Z,18.40
2019-06-26T14:08:51.845Z,18.00
2019-06-26T14:11:20.546Z,17.50
2019-06-26T14:13:49.175Z,17.40
2019-06-26T14:16:17.803Z,17.30
2019-06-26T14:18:46.387Z,17.50
2019-06-26T14:21:25.048Z,17.50
2019-06-26T14:23:45.376Z,17.70
2019-06-26T14:26:14.011Z,18.20
2019-06-26T14:28:42.683Z,18.10
2019-06-26T14:31:11.251Z,18.40
2019-06-26T14:33:39.903Z,19.20
2019-06-26T14:36:08.542Z,19.60
2019-06-26T14:38:37.184Z,20.40
2019-06-26T14:41:05.742Z,21.20
2019-06-26T14:43:34.462Z,21.80
2019-06-26T14:46:03.081Z,22.30
2019-06-26T14:48:31.646Z,23.10
2019-06-26T14:51:00.221Z,23.60
2019-06-26T14:53:28.814Z,24.10
2019-06-26T14:56:18.520Z,24.50
2019-06-26T14:58:47.107Z,25.10
2019-06-26T15:01:15.596Z,25.40
2019-06-26T15:04:01.151Z,25.80
2019-06-26T15:06:25.758Z,26.80
2019-06-26T15:08:54.460Z,27.40
2019-06-26T15:11:23.091Z,27.80
2019-06-26T15:13:51.691Z,28.60
2019-06-26T15:16:20.335Z,28.90
2019-06-26T15:18:48.983Z,28.90
2019-06-26T15:21:17.597Z,29.60
2019-06-26T15:23:46.186Z,30.00
2019-06-26T15:26:14.731Z,30.50
2019-06-26T15:28:43.299Z,30.80
2019-06-26T15:31:11.850Z,31.00
2019-06-26T15:33:40.501Z,31.50
2019-06-26T15:36:09.211Z,32.30
2019-06-26T15:38:37.916Z,33.00
2019-06-26T15:41:06.519Z,33.30
2019-06-26T15:43:35.107Z,33.90
2019-06-26T15:46:03.663Z,34.10
2019-06-26T15:48:32.246Z,34.70
2019-06-26T15:51:00.907Z,34.90
2019-06-26T15:53:29.553Z,35.10
2019-06-26T15:55:58.099Z,35.00
2019-06-26T15:58:26.727Z,35.20
2019-06-26T16:00:55.455Z,35.40
2019-06-26T16:03:24.235Z,35.70
2019-06-26T16:05:52.891Z,36.40
2019-06-26T16:08:21.512Z,36.50
2019-06-26T16:10:50.176Z,36.80
2019-06-26T16:13:18.715Z,37.30
2019-06-26T16:15:47.448Z,37.30
2019-06-26T16:18:20.472Z,38.00
2019-06-26T16:20:49.136Z,38.90
2019-06-26T16:23:17.750Z,38.90
2019-06-26T16:25:46.344Z,38.90
2019-06-26T16:28:14.950Z,38.90
2019-06-26T16:30:43.551Z,39.00
2019-06-26T16:33:12.172Z,39.20
2019-06-26T16:35:41.080Z,39.50
2019-06-26T16:38:09.680Z,39.70
2019-06-26T16:40:38.184Z,39.60
2019-06-26T16:43:06.804Z,40.10
2019-06-26T16:45:35.295Z,40.50
2019-06-26T16:48:03.919Z,40.70
2019-06-26T16:50:32.555Z,40.30
2019-06-26T16:53:01.187Z,39.90
2019-06-26T16:55:29.863Z,40.00
2019-06-26T16:57:58.420Z,40.30
2019-06-26T17:00:27.125Z,40.00
2019-06-26T17:02:55.814Z,40.10
2019-06-26T17:05:24.369Z,39.80
2019-06-26T17:07:53.180Z,40.00
2019-06-26T17:10:22.223Z,39.80
2019-06-26T17:12:50.899Z,40.00
2019-06-26T17:15:19.585Z,40.40
2019-06-26T17:17:48.227Z,40.70
2019-06-26T17:20:17.933Z,40.70
2019-06-26T17:22:46.607Z,40.80
2019-06-26T17:25:15.382Z,40.90
2019-06-26T17:27:44.026Z,41.10
2019-06-26T17:30:13.013Z,41.60
2019-06-26T17:32:41.517Z,41.90
2019-06-26T17:35:11.929Z,42.20
2019-06-26T17:37:40.600Z,42.70
2019-06-26T17:40:09.675Z,42.80
2019-06-26T17:42:38.411Z,43.00
2019-06-26T17:45:07.411Z,43.20
2019-06-26T17:47:36.175Z,43.50
2019-06-26T17:50:05.853Z,43.40
2019-06-26T17:52:38.118Z,43.70
2019-06-26T17:55:09.540Z,43.50
2019-06-26T17:57:38.320Z,43.90
2019-06-26T18:00:11.329Z,44.10
2019-06-26T18:02:40.041Z,44.00
2019-06-26T18:05:08.972Z,43.80
2019-06-26T18:07:37.695Z,43.90
2019-06-26T18:10:07.181Z,43.80
2019-06-26T18:12:36.352Z,44.10
2019-06-26T18:15:06.821Z,44.30
2019-06-26T18:17:35.528Z,44.30
2019-06-26T18:20:07.125Z,44.40
2019-06-26T18:22:36.158Z,44.40
2019-06-26T18:25:05.948Z,44.60
2019-06-26T18:27:34.526Z,44.80
2019-06-26T18:30:04.278Z,44.20
2019-06-26T18:32:33.009Z,44.40
2019-06-26T18:35:01.776Z,44.60
2019-06-26T18:37:31.224Z,44.90
2019-06-26T18:39:59.796Z,44.90
2019-06-26T18:42:28.461Z,44.90
2019-06-26T18:44:57.238Z,45.10
2019-06-26T18:47:25.887Z,45.80
2019-06-26T18:49:54.567Z,45.60
2019-06-26T18:52:23.253Z,46.00
2019-06-26T18:54:51.814Z,45.80
2019-06-26T18:57:20.448Z,46.10
2019-06-26T18:59:49.260Z,46.90
2019-06-26T19:02:17.999Z,46.70
2019-06-26T19:04:46.792Z,46.90
2019-06-26T19:07:15.434Z,46.90
2019-06-26T19:09:44.171Z,47.10
2019-06-26T19:12:12.962Z,47.20
2019-06-26T19:14:41.605Z,47.10
2019-06-26T19:17:10.383Z,47.40
2019-06-26T19:19:39.170Z,47.50
2019-06-26T19:22:08.032Z,47.50
2019-06-26T19:24:36.834Z,47.40
2019-06-26T19:27:07.749Z,47.80
2019-06-26T19:29:35.783Z,48.30
2019-06-26T19:32:04.591Z,48.00
2019-06-26T19:34:33.351Z,47.20
2019-06-26T19:37:02.062Z,46.60
2019-06-26T19:39:30.784Z,46.70
2019-06-26T19:41:59.486Z,46.20
2019-06-26T19:44:29.093Z,45.80
2019-06-26T19:46:57.733Z,45.70
2019-06-26T19:49:26.415Z,45.70
2019-06-26T19:51:55.038Z,45.80
2019-06-26T19:54:27.864Z,45.90
2019-06-26T19:56:54.195Z,45.70
2019-06-26T19:59:22.972Z,46.00
2019-06-26T20:01:51.743Z,45.90
2019-06-26T20:04:20.491Z,46.30
2019-06-26T20:06:49.297Z,46.70
2019-06-26T20:09:18.024Z,46.90
2019-06-26T20:11:46.735Z,47.20
2019-06-26T20:14:15.444Z,47.50
2019-06-26T20:16:44.188Z,47.70
2019-06-26T20:19:12.759Z,47.90
2019-06-26T20:21:41.484Z,48.20
2019-06-26T20:24:10.067Z,48.40
2019-06-26T20:26:38.803Z,48.60
2019-06-26T20:29:07.427Z,48.80
2019-06-26T20:31:36.026Z,49.30
2019-06-26T20:34:04.730Z,49.30
2019-06-26T20:36:33.480Z,49.60
2019-06-26T20:39:02.110Z,49.80
2019-06-26T20:41:30.904Z,50.00
2019-06-26T20:43:59.569Z,50.30
2019-06-26T20:46:28.302Z,50.60
2019-06-26T20:48:56.926Z,50.80
2019-06-26T20:51:25.580Z,51.10
2019-06-26T20:53:54.230Z,51.00
2019-06-26T20:56:25.743Z,51.00
2019-06-26T20:58:53.259Z,51.00
2019-06-26T21:01:21.769Z,51.00
2019-06-26T21:03:50.434Z,51.60
2019-06-26T21:06:19.070Z,52.50
2019-06-26T21:08:47.757Z,52.30
2019-06-26T21:11:16.434Z,52.60
2019-06-26T21:13:45.133Z,52.80
2019-06-26T21:16:13.830Z,53.00
2019-06-26T21:18:42.410Z,53.10
2019-06-26T21:21:11.138Z,53.40
2019-06-26T21:23:39.758Z,53.40
2019-06-26T21:26:08.648Z,53.60
2019-06-26T21:28:37.148Z,53.90
2019-06-26T21:31:05.882Z,53.80
2019-06-26T21:33:34.419Z,53.60
2019-06-26T21:36:03.056Z,53.70
2019-06-26T21:38:31.632Z,53.70
2019-06-26T21:41:00.252Z,53.60
2019-06-26T21:43:28.847Z,53.40
2019-06-26T21:45:57.568Z,53.30
2019-06-26T21:48:26.827Z,53.40
2019-06-26T21:50:55.618Z,53.30
2019-06-26T21:53:24.445Z,53.40
2019-06-26T21:55:53.046Z,53.40
2019-06-26T21:58:21.765Z,53.70
2019-06-26T22:00:50.714Z,53.90
2019-06-26T22:03:19.511Z,53.90
2019-06-26T22:05:48.127Z,54.00
2019-06-26T22:08:16.800Z,54.10
2019-06-26T22:10:45.421Z,54.30
2019-06-26T22:13:14.078Z,54.20
2019-06-26T22:15:42.766Z,54.40
2019-06-26T22:18:11.420Z,54.60
2019-06-26T22:20:40.032Z,54.60
2019-06-26T22:23:08.688Z,54.90
2019-06-26T22:25:50.428Z,55.10
2019-06-26T22:28:07.629Z,55.90
2019-06-26T22:30:36.344Z,55.40
2019-06-26T22:33:05.128Z,55.60
2019-06-26T22:35:33.834Z,55.90
2019-06-26T22:38:02.484Z,56.00
2019-06-26T22:40:31.216Z,56.10
2019-06-26T22:42:59.852Z,56.50
2019-06-26T22:45:28.410Z,56.70
2019-06-26T22:47:56.980Z,56.80
2019-06-26T22:50:25.554Z,57.00
2019-06-26T22:52:54.483Z,57.10
2019-06-26T22:55:23.284Z,57.20
2019-06-26T22:57:51.992Z,57.30
2019-06-26T23:00:22.116Z,58.10
2019-06-26T23:02:50.698Z,57.60
2019-06-26T23:05:19.337Z,58.30
2019-06-26T23:07:47.969Z,57.80
2019-06-26T23:10:17.045Z,58.10
2019-06-26T23:12:45.808Z,58.20
2019-06-26T23:15:14.942Z,58.30
2019-06-26T23:17:43.650Z,58.60
2019-06-26T23:20:13.394Z,58.80
2019-06-26T23:22:42.098Z,58.70
2019-06-26T23:25:11.812Z,58.50
2019-06-26T23:27:40.448Z,58.60
2019-06-26T23:30:17.333Z,58.60
2019-06-26T23:32:46.113Z,58.60
2019-06-26T23:35:14.952Z,58.40
2019-06-26T23:37:43.660Z,58.40
2019-06-26T23:40:12.692Z,58.40
2019-06-26T23:42:41.230Z,59.00
2019-06-26T23:45:10.437Z,58.60
2019-06-26T23:47:39.073Z,58.80
2019-06-26T23:50:08.102Z,59.00
2019-06-26T23:52:36.670Z,59.30
2019-06-26T23:55:06.891Z,59.00
2019-06-26T23:57:35.576Z,59.70
